sensor_id;sensor_type;location;lat;lon;timestamp;temperature;humidity
19516;DHT22;9901;47.448;7.692;2023-04-28T00:02:14;13.30;99.90
19516;DHT22;9901;47.448;7.692;2023-04-28T00:04:40;13.40;99.90
19516;DHT22;9901;47.448;7.692;2023-04-28T00:07:05;13.50;99.90
19516;DHT22;9901;47.448;7.692;2023-04-28T00:09:32;13.40;99.90
19516;DHT22;9901;47.448;7.692;2023-04-28T00:11:57;13.30;99.90
19516;DHT22;9901;47.448;7.692;2023-04-28T00:14:33;13.50;99.90
19516;DHT22;9901;47.448;7.692;2023-04-28T00:16:59;13.40;99.90
19516;DHT22;9901;47.448;7.692;2023-04-28T00:19:24;13.50;99.90
19516;DHT22;9901;47.448;7.692;2023-04-28T00:21:50;13.50;99.90
19516;DHT22;9901;47.448;7.692;2023-04-28T00:24:16;13.40;99.90
19516;DHT22;9901;47.448;7.692;2023-04-28T00:26:41;13.40;99.90
19516;DHT22;9901;47.448;7.692;2023-04-28T00:29:08;13.50;99.90
19516;DHT22;9901;47.448;7.692;2023-04-28T00:31:36;13.40;99.90
19516;DHT22;9901;47.448;7.692;2023-04-28T00:34:01;13.40;99.90
19516;DHT22;9901;47.448;7.692;2023-04-28T00:36:27;13.30;99.90
19516;DHT22;9901;47.448;7.692;2023-04-28T00:38:57;13.30;99.90
19516;DHT22;9901;47.448;7.692;2023-04-28T00:41:25;13.30;99.90
19516;DHT22;9901;47.448;7.692;2023-04-28T00:43:51;13.20;99.90
19516;DHT22;9901;47.448;7.692;2023-04-28T00:46:20;13.20;99.90
19516;DHT22;9901;47.448;7.692;2023-04-28T00:48:47;13.20;99.90
19516;DHT22;9901;47.448;7.692;2023-04-28T00:51:13;13.20;99.90
19516;DHT22;9901;47.448;7.692;2023-04-28T00:53:39;13.30;99.90
19516;DHT22;9901;47.448;7.692;2023-04-28T00:56:06;13.30;99.90
19516;DHT22;9901;47.448;7.692;2023-04-28T00:58:46;13.30;99.90
19516;DHT22;9901;47.448;7.692;2023-04-28T01:01:15;13.30;99.90
19516;DHT22;9901;47.448;7.692;2023-04-28T01:03:41;13.30;99.90
19516;DHT22;9901;47.448;7.692;2023-04-28T01:06:10;13.20;99.90
19516;DHT22;9901;47.448;7.692;2023-04-28T01:08:37;13.30;99.90
19516;DHT22;9901;47.448;7.692;2023-04-28T01:11:17;13.30;99.90
19516;DHT22;9901;47.448;7.692;2023-04-28T01:13:46;13.30;99.90
19516;DHT22;9901;47.448;7.692;2023-04-28T01:16:11;13.40;99.90
19516;DHT22;9901;47.448;7.692;2023-04-28T01:18:41;13.30;99.90
19516;DHT22;9901;47.448;7.692;2023-04-28T01:21:09;13.20;99.90
19516;DHT22;9901;47.448;7.692;2023-04-28T01:23:37;13.20;99.90
19516;DHT22;9901;47.448;7.692;2023-04-28T01:26:03;13.20;99.90
19516;DHT22;9901;47.448;7.692;2023-04-28T01:28:34;13.20;99.90
19516;DHT22;9901;47.448;7.692;2023-04-28T01:31:00;13.10;99.90
19516;DHT22;9901;47.448;7.692;2023-04-28T01:33:26;13.10;99.90
19516;DHT22;9901;47.448;7.692;2023-04-28T01:35:56;13.10;99.90
19516;DHT22;9901;47.448;7.692;2023-04-28T01:38:22;13.00;99.90
19516;DHT22;9901;47.448;7.692;2023-04-28T01:41:04;13.10;99.90
19516;DHT22;9901;47.448;7.692;2023-04-28T01:43:36;13.20;99.90
19516;DHT22;9901;47.448;7.692;2023-04-28T01:46:01;13.10;99.90
19516;DHT22;9901;47.448;7.692;2023-04-28T01:48:46;13.10;99.90
19516;DHT22;9901;47.448;7.692;2023-04-28T01:51:13;13.00;99.90
19516;DHT22;9901;47.448;7.692;2023-04-28T01:53:38;13.00;99.90
19516;DHT22;9901;47.448;7.692;2023-04-28T01:56:04;13.00;99.90
19516;DHT22;9901;47.448;7.692;2023-04-28T01:58:30;13.00;99.90
19516;DHT22;9901;47.448;7.692;2023-04-28T02:00:57;12.90;99.90
19516;DHT22;9901;47.448;7.692;2023-04-28T02:03:22;12.90;99.90
19516;DHT22;9901;47.448;7.692;2023-04-28T02:05:51;13.00;99.90
19516;DHT22;9901;47.448;7.692;2023-04-28T02:08:16;12.90;99.90
19516;DHT22;9901;47.448;7.692;2023-04-28T02:10:45;13.00;99.90
19516;DHT22;9901;47.448;7.692;2023-04-28T02:13:10;12.90;99.90
19516;DHT22;9901;47.448;7.692;2023-04-28T02:15:42;12.90;99.90
19516;DHT22;9901;47.448;7.692;2023-04-28T02:18:09;12.80;99.90
19516;DHT22;9901;47.448;7.692;2023-04-28T02:20:36;12.80;99.90
19516;DHT22;9901;47.448;7.692;2023-04-28T02:23:01;12.70;99.90
19516;DHT22;9901;47.448;7.692;2023-04-28T02:25:36;12.70;99.90
19516;DHT22;9901;47.448;7.692;2023-04-28T02:28:02;12.70;99.90
19516;DHT22;9901;47.448;7.692;2023-04-28T02:30:28;12.70;99.90
19516;DHT22;9901;47.448;7.692;2023-04-28T02:32:53;12.70;99.90
19516;DHT22;9901;47.448;7.692;2023-04-28T02:35:19;12.60;99.90
19516;DHT22;9901;47.448;7.692;2023-04-28T02:37:45;12.70;99.90
19516;DHT22;9901;47.448;7.692;2023-04-28T02:40:11;12.80;99.90
19516;DHT22;9901;47.448;7.692;2023-04-28T02:42:36;12.70;99.90
19516;DHT22;9901;47.448;7.692;2023-04-28T02:45:02;12.60;99.90
19516;DHT22;9901;47.448;7.692;2023-04-28T02:47:28;12.60;99.90
19516;DHT22;9901;47.448;7.692;2023-04-28T02:49:53;12.50;99.90
19516;DHT22;9901;47.448;7.692;2023-04-28T02:52:19;12.60;99.90
19516;DHT22;9901;47.448;7.692;2023-04-28T02:54:52;12.60;99.90
19516;DHT22;9901;47.448;7.692;2023-04-28T02:57:25;12.50;99.90
19516;DHT22;9901;47.448;7.692;2023-04-28T02:59:55;12.40;99.90
19516;DHT22;9901;47.448;7.692;2023-04-28T03:02:20;12.40;99.90
19516;DHT22;9901;47.448;7.692;2023-04-28T03:04:47;12.40;99.90
19516;DHT22;9901;47.448;7.692;2023-04-28T03:07:46;12.40;99.90
19516;DHT22;9901;47.448;7.692;2023-04-28T03:10:12;12.40;99.90
19516;DHT22;9901;47.448;7.692;2023-04-28T03:12:52;12.40;99.90
19516;DHT22;9901;47.448;7.692;2023-04-28T03:15:18;12.40;99.90
19516;DHT22;9901;47.448;7.692;2023-04-28T03:17:43;12.30;99.90
19516;DHT22;9901;47.448;7.692;2023-04-28T03:20:25;12.40;99.90
19516;DHT22;9901;47.448;7.692;2023-04-28T03:22:56;12.40;99.90
19516;DHT22;9901;47.448;7.692;2023-04-28T03:25:22;12.50;99.90
19516;DHT22;9901;47.448;7.692;2023-04-28T03:27:48;12.40;99.90
19516;DHT22;9901;47.448;7.692;2023-04-28T03:30:13;12.40;99.90
19516;DHT22;9901;47.448;7.692;2023-04-28T03:32:39;12.40;99.90
19516;DHT22;9901;47.448;7.692;2023-04-28T03:35:05;12.30;99.90
19516;DHT22;9901;47.448;7.692;2023-04-28T03:37:30;12.40;99.90
19516;DHT22;9901;47.448;7.692;2023-04-28T03:39:56;12.40;99.90
19516;DHT22;9901;47.448;7.692;2023-04-28T03:42:21;12.30;99.90
19516;DHT22;9901;47.448;7.692;2023-04-28T03:44:48;12.30;99.90
19516;DHT22;9901;47.448;7.692;2023-04-28T03:47:14;12.30;99.90
19516;DHT22;9901;47.448;7.692;2023-04-28T03:49:39;12.30;99.90
19516;DHT22;9901;47.448;7.692;2023-04-28T03:52:05;12.30;99.90
19516;DHT22;9901;47.448;7.692;2023-04-28T03:54:31;12.50;99.90
19516;DHT22;9901;47.448;7.692;2023-04-28T03:57:02;12.30;99.90
19516;DHT22;9901;47.448;7.692;2023-04-28T03:59:28;12.30;99.90
19516;DHT22;9901;47.448;7.692;2023-04-28T04:01:58;12.40;99.90
19516;DHT22;9901;47.448;7.692;2023-04-28T04:04:23;12.40;99.90
19516;DHT22;9901;47.448;7.692;2023-04-28T04:06:49;12.30;99.90
19516;DHT22;9901;47.448;7.692;2023-04-28T04:09:15;12.30;99.90
19516;DHT22;9901;47.448;7.692;2023-04-28T04:11:40;12.30;99.90
19516;DHT22;9901;47.448;7.692;2023-04-28T04:14:06;12.30;99.90
19516;DHT22;9901;47.448;7.692;2023-04-28T04:16:32;12.30;99.90
19516;DHT22;9901;47.448;7.692;2023-04-28T04:18:57;12.40;99.90
19516;DHT22;9901;47.448;7.692;2023-04-28T04:21:24;12.30;99.90
19516;DHT22;9901;47.448;7.692;2023-04-28T04:23:49;12.40;99.90
19516;DHT22;9901;47.448;7.692;2023-04-28T04:31:07;12.40;99.90
19516;DHT22;9901;47.448;7.692;2023-04-28T04:33:33;12.50;99.90
19516;DHT22;9901;47.448;7.692;2023-04-28T04:36:20;12.30;99.90
19516;DHT22;9901;47.448;7.692;2023-04-28T04:38:48;12.40;99.90
19516;DHT22;9901;47.448;7.692;2023-04-28T04:41:14;12.30;99.90
19516;DHT22;9901;47.448;7.692;2023-04-28T11:00:42;18.40;99.90
19516;DHT22;9901;47.448;7.692;2023-04-28T11:03:41;18.30;99.90
19516;DHT22;9901;47.448;7.692;2023-04-28T11:06:27;18.70;99.90
19516;DHT22;9901;47.448;7.692;2023-04-28T11:09:01;19.20;99.90
19516;DHT22;9901;47.448;7.692;2023-04-28T11:11:31;19.10;99.90
19516;DHT22;9901;47.448;7.692;2023-04-28T11:16:51;18.40;99.90
19516;DHT22;9901;47.448;7.692;2023-04-28T11:19:19;18.40;99.90
19516;DHT22;9901;47.448;7.692;2023-04-28T11:21:46;18.10;99.90
19516;DHT22;9901;47.448;7.692;2023-04-28T11:24:12;18.10;99.90
19516;DHT22;9901;47.448;7.692;2023-04-28T11:26:42;18.00;99.90
19516;DHT22;9901;47.448;7.692;2023-04-28T11:29:23;18.10;99.90
19516;DHT22;9901;47.448;7.692;2023-04-28T11:32:01;18.20;99.90
19516;DHT22;9901;47.448;7.692;2023-04-28T11:34:39;18.10;99.90
19516;DHT22;9901;47.448;7.692;2023-04-28T11:37:07;18.30;99.90
19516;DHT22;9901;47.448;7.692;2023-04-28T11:39:50;18.50;99.90
19516;DHT22;9901;47.448;7.692;2023-04-28T11:42:19;18.60;99.90
19516;DHT22;9901;47.448;7.692;2023-04-28T11:44:52;18.80;99.90
19516;DHT22;9901;47.448;7.692;2023-04-28T11:50:12;19.50;99.90
19516;DHT22;9901;47.448;7.692;2023-04-28T11:52:50;19.70;99.90
19516;DHT22;9901;47.448;7.692;2023-04-28T11:55:23;20.30;99.90
19516;DHT22;9901;47.448;7.692;2023-04-28T11:58:21;20.90;99.90
19516;DHT22;9901;47.448;7.692;2023-04-28T12:01:13;21.10;99.90
19516;DHT22;9901;47.448;7.692;2023-04-28T12:03:49;21.50;99.90
19516;DHT22;9901;47.448;7.692;2023-04-28T12:09:39;21.60;99.90
19516;DHT22;9901;47.448;7.692;2023-04-28T12:12:43;21.00;99.90
19516;DHT22;9901;47.448;7.692;2023-04-28T12:16:01;20.50;99.90
19516;DHT22;9901;47.448;7.692;2023-04-28T12:18:57;19.90;99.90
19516;DHT22;9901;47.448;7.692;2023-04-28T12:21:27;19.80;99.90
19516;DHT22;9901;47.448;7.692;2023-04-28T12:23:52;19.80;99.90
19516;DHT22;9901;47.448;7.692;2023-04-28T12:26:24;19.90;99.90
19516;DHT22;9901;47.448;7.692;2023-04-28T12:29:03;20.80;99.90
19516;DHT22;9901;47.448;7.692;2023-04-28T12:31:53;21.00;99.90
19516;DHT22;9901;47.448;7.692;2023-04-28T12:34:21;21.40;99.90
19516;DHT22;9901;47.448;7.692;2023-04-28T12:36:52;21.10;99.90
19516;DHT22;9901;47.448;7.692;2023-04-28T12:39:20;21.20;99.90
19516;DHT22;9901;47.448;7.692;2023-04-28T12:41:50;21.90;99.90
19516;DHT22;9901;47.448;7.692;2023-04-28T12:44:35;22.30;99.90
19516;DHT22;9901;47.448;7.692;2023-04-28T12:47:06;22.70;99.90
19516;DHT22;9901;47.448;7.692;2023-04-28T12:49:37;22.90;99.90
19516;DHT22;9901;47.448;7.692;2023-04-28T12:52:05;22.80;99.90
19516;DHT22;9901;47.448;7.692;2023-04-28T12:54:34;22.30;99.90
19516;DHT22;9901;47.448;7.692;2023-04-28T12:57:06;22.10;99.90
19516;DHT22;9901;47.448;7.692;2023-04-28T12:59:32;22.00;99.90
19516;DHT22;9901;47.448;7.692;2023-04-28T13:02:00;21.90;99.90
19516;DHT22;9901;47.448;7.692;2023-04-28T13:04:42;21.90;99.90
19516;DHT22;9901;47.448;7.692;2023-04-28T13:07:09;21.40;99.90
19516;DHT22;9901;47.448;7.692;2023-04-28T13:09:41;21.10;99.90
19516;DHT22;9901;47.448;7.692;2023-04-28T13:12:08;21.80;99.90
19516;DHT22;9901;47.448;7.692;2023-04-28T13:14:33;22.70;99.90
19516;DHT22;9901;47.448;7.692;2023-04-28T13:16:59;23.20;99.90
19516;DHT22;9901;47.448;7.692;2023-04-28T13:19:27;23.00;99.90
19516;DHT22;9901;47.448;7.692;2023-04-28T13:21:56;22.70;99.90
19516;DHT22;9901;47.448;7.692;2023-04-28T13:24:32;22.40;99.90
19516;DHT22;9901;47.448;7.692;2023-04-28T13:27:02;22.40;99.90
19516;DHT22;9901;47.448;7.692;2023-04-28T13:29:32;22.30;99.90
19516;DHT22;9901;47.448;7.692;2023-04-28T13:32:01;22.30;99.90
19516;DHT22;9901;47.448;7.692;2023-04-28T13:34:29;22.40;99.90
19516;DHT22;9901;47.448;7.692;2023-04-28T13:37:12;22.80;99.90
19516;DHT22;9901;47.448;7.692;2023-04-28T13:39:46;22.70;99.90
19516;DHT22;9901;47.448;7.692;2023-04-28T13:42:27;22.40;99.90
19516;DHT22;9901;47.448;7.692;2023-04-28T13:44:55;22.20;99.90
19516;DHT22;9901;47.448;7.692;2023-04-28T13:47:36;22.00;99.90
19516;DHT22;9901;47.448;7.692;2023-04-28T13:50:30;21.80;99.90
19516;DHT22;9901;47.448;7.692;2023-04-28T13:52:56;21.60;99.90
19516;DHT22;9901;47.448;7.692;2023-04-28T13:55:23;21.60;99.90
19516;DHT22;9901;47.448;7.692;2023-04-28T13:57:55;21.60;99.90
19516;DHT22;9901;47.448;7.692;2023-04-28T14:00:28;21.70;99.90
19516;DHT22;9901;47.448;7.692;2023-04-28T14:02:58;21.60;99.90
19516;DHT22;9901;47.448;7.692;2023-04-28T14:05:24;21.50;99.90
19516;DHT22;9901;47.448;7.692;2023-04-28T14:07:52;21.80;99.90
19516;DHT22;9901;47.448;7.692;2023-04-28T14:10:20;21.60;99.90
19516;DHT22;9901;47.448;7.692;2023-04-28T14:12:55;21.70;99.90
19516;DHT22;9901;47.448;7.692;2023-04-28T14:15:20;21.60;99.90
19516;DHT22;9901;47.448;7.692;2023-04-28T14:17:58;21.60;99.90
19516;DHT22;9901;47.448;7.692;2023-04-28T14:20:24;21.60;99.90
19516;DHT22;9901;47.448;7.692;2023-04-28T14:22:49;21.40;99.90
19516;DHT22;9901;47.448;7.692;2023-04-28T14:25:16;21.30;99.90
19516;DHT22;9901;47.448;7.692;2023-04-28T14:27:42;21.20;99.90
19516;DHT22;9901;47.448;7.692;2023-04-28T14:30:31;21.10;99.90
19516;DHT22;9901;47.448;7.692;2023-04-28T14:33:18;20.80;99.90
19516;DHT22;9901;47.448;7.692;2023-04-28T14:35:46;20.80;99.90
19516;DHT22;9901;47.448;7.692;2023-04-28T14:38:26;20.70;99.90
19516;DHT22;9901;47.448;7.692;2023-04-28T14:41:17;20.70;99.90
19516;DHT22;9901;47.448;7.692;2023-04-28T14:46:25;20.40;99.90
19516;DHT22;9901;47.448;7.692;2023-04-28T14:48:54;20.30;99.90
19516;DHT22;9901;47.448;7.692;2023-04-28T14:51:28;20.20;99.90
19516;DHT22;9901;47.448;7.692;2023-04-28T14:57:24;20.00;99.90
19516;DHT22;9901;47.448;7.692;2023-04-28T15:03:24;19.70;99.90
19516;DHT22;9901;47.448;7.692;2023-04-28T15:05:53;19.40;99.90
19516;DHT22;9901;47.448;7.692;2023-04-28T15:08:21;19.30;99.90
19516;DHT22;9901;47.448;7.692;2023-04-28T15:10:47;19.30;99.90
19516;DHT22;9901;47.448;7.692;2023-04-28T15:13:22;19.20;99.90
19516;DHT22;9901;47.448;7.692;2023-04-28T15:15:49;19.10;99.90
19516;DHT22;9901;47.448;7.692;2023-04-28T15:28:44;18.70;99.90
19516;DHT22;9901;47.448;7.692;2023-04-28T15:31:13;18.60;99.90
19516;DHT22;9901;47.448;7.692;2023-04-28T15:33:38;18.60;99.90
19516;DHT22;9901;47.448;7.692;2023-04-28T15:36:07;18.50;99.90
19516;DHT22;9901;47.448;7.692;2023-04-28T15:38:49;18.50;99.90
19516;DHT22;9901;47.448;7.692;2023-04-28T15:41:35;18.40;99.90
19516;DHT22;9901;47.448;7.692;2023-04-28T15:44:01;18.30;99.90
19516;DHT22;9901;47.448;7.692;2023-04-28T15:46:35;18.20;99.90
19516;DHT22;9901;47.448;7.692;2023-04-28T15:49:07;18.20;99.90
19516;DHT22;9901;47.448;7.692;2023-04-28T15:51:35;18.20;99.90
19516;DHT22;9901;47.448;7.692;2023-04-28T15:54:02;18.10;99.90
19516;DHT22;9901;47.448;7.692;2023-04-28T15:56:33;18.00;99.90
19516;DHT22;9901;47.448;7.692;2023-04-28T15:58:59;17.90;99.90
19516;DHT22;9901;47.448;7.692;2023-04-28T16:01:28;17.80;99.90
19516;DHT22;9901;47.448;7.692;2023-04-28T16:03:56;17.60;99.90
19516;DHT22;9901;47.448;7.692;2023-04-28T16:06:24;17.60;99.90
19516;DHT22;9901;47.448;7.692;2023-04-28T16:08:55;17.60;99.90
19516;DHT22;9901;47.448;7.692;2023-04-28T16:11:21;17.50;99.90
19516;DHT22;9901;47.448;7.692;2023-04-28T16:13:55;17.40;99.90
19516;DHT22;9901;47.448;7.692;2023-04-28T16:22:50;17.10;99.90
19516;DHT22;9901;47.448;7.692;2023-04-28T16:25:16;17.00;99.90
19516;DHT22;9901;47.448;7.692;2023-04-28T16:28:07;17.00;99.90
19516;DHT22;9901;47.448;7.692;2023-04-28T16:30:34;16.90;99.90
